sensor_id;sensor_type;location;lat;lon;timestamp;pressure;altitude;pressure_sealevel;temperature;humidity
47530;BME280;33272;51.922;7.730;2023-07-28T00:02:09;147107.00;;;18.55;100.00
47530;BME280;33272;51.922;7.730;2023-07-28T00:04:37;147086.56;;;18.47;100.00
47530;BME280;33272;51.922;7.730;2023-07-28T00:07:05;147099.31;;;18.52;100.00
47530;BME280;33272;51.922;7.730;2023-07-28T00:09:32;147092.94;;;18.49;100.00
47530;BME280;33272;51.922;7.730;2023-07-28T00:11:59;147094.22;;;18.50;100.00
47530;BME280;33272;51.922;7.730;2023-07-28T00:14:27;147104.44;;;18.54;100.00
47530;BME280;33272;51.922;7.730;2023-07-28T00:16:56;147096.78;;;18.51;100.00
47530;BME280;33272;51.922;7.730;2023-07-28T00:19:25;147101.88;;;18.53;100.00
47530;BME280;33272;51.922;7.730;2023-07-28T00:21:52;147095.47;;;18.50;100.00
47530;BME280;33272;51.922;7.730;2023-07-28T00:24:21;147112.09;;;18.57;100.00
47530;BME280;33272;51.922;7.730;2023-07-28T00:26:48;147113.38;;;18.58;100.00
47530;BME280;33272;51.922;7.730;2023-07-28T00:29:15;147105.72;;;18.55;100.00
47530;BME280;33272;51.922;7.730;2023-07-28T00:31:42;147099.31;;;18.52;100.00
47530;BME280;33272;51.922;7.730;2023-07-28T00:34:09;147113.38;;;18.58;100.00
47530;BME280;33272;51.922;7.730;2023-07-28T00:36:37;147103.13;;;18.53;100.00
47530;BME280;33272;51.922;7.730;2023-07-28T00:39:04;147096.78;;;18.51;100.00
47530;BME280;33272;51.922;7.730;2023-07-28T00:41:31;147098.06;;;18.51;100.00
47530;BME280;33272;51.922;7.730;2023-07-28T00:43:58;147105.72;;;18.55;100.00
47530;BME280;33272;51.922;7.730;2023-07-28T00:46:25;147098.06;;;18.51;100.00
47530;BME280;33272;51.922;7.730;2023-07-28T00:48:53;147095.47;;;18.50;100.00
47530;BME280;33272;51.922;7.730;2023-07-28T00:51:21;147095.47;;;18.50;100.00
47530;BME280;33272;51.922;7.730;2023-07-28T00:53:50;147095.47;;;18.50;100.00
47530;BME280;33272;51.922;7.730;2023-07-28T00:56:19;147105.72;;;18.55;100.00
47530;BME280;33272;51.922;7.730;2023-07-28T00:58:47;147101.88;;;18.53;100.00
47530;BME280;33272;51.922;7.730;2023-07-28T01:01:15;147099.31;;;18.52;100.00
47530;BME280;33272;51.922;7.730;2023-07-28T01:03:42;147099.31;;;18.52;100.00
47530;BME280;33272;51.922;7.730;2023-07-28T01:06:18;147098.06;;;18.51;100.00
47530;BME280;33272;51.922;7.730;2023-07-28T01:08:54;147099.31;;;18.52;100.00
47530;BME280;33272;51.922;7.730;2023-07-28T01:11:22;147112.09;;;18.57;100.00
47530;BME280;33272;51.922;7.730;2023-07-28T01:13:49;147121.03;;;18.61;100.00
47530;BME280;33272;51.922;7.730;2023-07-28T01:16:16;147109.53;;;18.56;100.00
47530;BME280;33272;51.922;7.730;2023-07-28T01:18:43;147113.38;;;18.58;100.00
47530;BME280;33272;51.922;7.730;2023-07-28T01:21:30;147104.44;;;18.54;100.00
47530;BME280;33272;51.922;7.730;2023-07-28T01:24:09;147105.72;;;18.55;100.00
47530;BME280;33272;51.922;7.730;2023-07-28T01:26:43;147105.72;;;18.55;100.00
47530;BME280;33272;51.922;7.730;2023-07-28T01:29:11;147078.91;;;18.44;100.00
47530;BME280;33272;51.922;7.730;2023-07-28T01:31:40;147078.91;;;18.44;100.00
47530;BME280;33272;51.922;7.730;2023-07-28T01:34:07;147087.88;;;18.47;100.00
47530;BME280;33272;51.922;7.730;2023-07-28T01:36:34;147091.69;;;18.49;100.00
47530;BME280;33272;51.922;7.730;2023-07-28T01:39:01;147098.06;;;18.51;100.00
47530;BME280;33272;51.922;7.730;2023-07-28T01:41:28;147103.13;;;18.53;100.00
47530;BME280;33272;51.922;7.730;2023-07-28T01:43:56;147095.47;;;18.50;100.00
47530;BME280;33272;51.922;7.730;2023-07-28T01:46:23;147115.91;;;18.59;100.00
47530;BME280;33272;51.922;7.730;2023-07-28T01:48:50;147084.03;;;18.46;100.00
47530;BME280;33272;51.922;7.730;2023-07-28T01:51:17;147096.78;;;18.51;100.00
47530;BME280;33272;51.922;7.730;2023-07-28T01:53:44;147101.88;;;18.53;100.00
47530;BME280;33272;51.922;7.730;2023-07-28T01:56:11;147091.69;;;18.49;100.00
47530;BME280;33272;51.922;7.730;2023-07-28T01:58:38;147091.69;;;18.49;100.00
47530;BME280;33272;51.922;7.730;2023-07-28T02:01:06;147117.19;;;18.59;100.00
47530;BME280;33272;51.922;7.730;2023-07-28T02:03:33;147100.59;;;18.52;100.00
47530;BME280;33272;51.922;7.730;2023-07-28T02:06:00;147124.84;;;18.62;100.00
47530;BME280;33272;51.922;7.730;2023-07-28T02:08:27;147099.31;;;18.52;100.00
47530;BME280;33272;51.922;7.730;2023-07-28T02:10:54;147109.53;;;18.56;100.00
47530;BME280;33272;51.922;7.730;2023-07-28T02:13:21;147095.47;;;18.50;100.00
47530;BME280;33272;51.922;7.730;2023-07-28T02:15:48;147110.78;;;18.57;100.00
47530;BME280;33272;51.922;7.730;2023-07-28T02:18:17;147114.63;;;18.58;100.00
47530;BME280;33272;51.922;7.730;2023-07-28T02:20:44;147121.03;;;18.61;100.00
47530;BME280;33272;51.922;7.730;2023-07-28T02:23:10;147119.75;;;18.60;100.00
47530;BME280;33272;51.922;7.730;2023-07-28T02:25:37;147117.19;;;18.59;100.00
47530;BME280;33272;51.922;7.730;2023-07-28T02:28:04;147114.63;;;18.58;100.00
47530;BME280;33272;51.922;7.730;2023-07-28T02:30:32;147124.84;;;18.62;100.00
47530;BME280;33272;51.922;7.730;2023-07-28T02:32:59;147127.41;;;18.63;100.00
47530;BME280;33272;51.922;7.730;2023-07-28T02:35:27;147138.88;;;18.68;100.00
47530;BME280;33272;51.922;7.730;2023-07-28T02:37:54;147140.13;;;18.68;100.00
47530;BME280;33272;51.922;7.730;2023-07-28T02:40:21;147124.84;;;18.62;100.00
47530;BME280;33272;51.922;7.730;2023-07-28T02:42:48;147126.09;;;18.63;100.00
47530;BME280;33272;51.922;7.730;2023-07-28T02:45:15;147124.84;;;18.62;100.00
47530;BME280;33272;51.922;7.730;2023-07-28T02:47:42;147114.63;;;18.58;100.00
47530;BME280;33272;51.922;7.730;2023-07-28T02:50:09;147121.03;;;18.61;100.00
47530;BME280;33272;51.922;7.730;2023-07-28T02:52:37;147124.84;;;18.62;100.00
47530;BME280;33272;51.922;7.730;2023-07-28T02:55:05;147122.28;;;18.61;100.00
47530;BME280;33272;51.922;7.730;2023-07-28T02:57:32;147113.38;;;18.58;100.00
47530;BME280;33272;51.922;7.730;2023-07-28T02:59:59;147122.28;;;18.61;100.00
47530;BME280;33272;51.922;7.730;2023-07-28T03:02:26;147108.25;;;18.56;100.00
47530;BME280;33272;51.922;7.730;2023-07-28T03:04:53;147109.53;;;18.56;100.00
47530;BME280;33272;51.922;7.730;2023-07-28T03:07:20;147107.00;;;18.55;100.00
47530;BME280;33272;51.922;7.730;2023-07-28T03:09:48;147107.00;;;18.55;100.00
47530;BME280;33272;51.922;7.730;2023-07-28T03:12:15;147112.09;;;18.57;100.00
47530;BME280;33272;51.922;7.730;2023-07-28T03:14:42;147109.53;;;18.56;100.00
47530;BME280;33272;51.922;7.730;2023-07-28T03:17:09;147104.44;;;18.54;100.00
47530;BME280;33272;51.922;7.730;2023-07-28T03:19:36;147107.00;;;18.55;100.00
47530;BME280;33272;51.922;7.730;2023-07-28T03:22:03;147104.44;;;18.54;100.00
47530;BME280;33272;51.922;7.730;2023-07-28T03:24:30;147114.63;;;18.58;100.00
47530;BME280;33272;51.922;7.730;2023-07-28T03:26:58;147122.28;;;18.61;100.00
47530;BME280;33272;51.922;7.730;2023-07-28T03:29:25;147124.84;;;18.62;100.00
47530;BME280;33272;51.922;7.730;2023-07-28T03:31:52;147119.75;;;18.60;100.00
47530;BME280;33272;51.922;7.730;2023-07-28T03:34:19;147114.63;;;18.58;100.00
47530;BME280;33272;51.922;7.730;2023-07-28T03:36:46;147140.13;;;18.68;100.00
47530;BME280;33272;51.922;7.730;2023-07-28T03:39:13;147150.38;;;18.72;100.00
47530;BME280;33272;51.922;7.730;2023-07-28T03:41:40;147145.25;;;18.70;100.00
47530;BME280;33272;51.922;7.730;2023-07-28T03:44:08;147122.28;;;18.61;100.00
47530;BME280;33272;51.922;7.730;2023-07-28T03:46:35;147124.84;;;18.62;100.00
47530;BME280;33272;51.922;7.730;2023-07-28T03:49:02;147119.75;;;18.60;100.00
47530;BME280;33272;51.922;7.730;2023-07-28T03:51:29;147123.56;;;18.62;100.00
47530;BME280;33272;51.922;7.730;2023-07-28T03:53:56;147137.59;;;18.67;100.00
47530;BME280;33272;51.922;7.730;2023-07-28T03:56:23;147115.91;;;18.59;100.00
47530;BME280;33272;51.922;7.730;2023-07-28T03:58:50;147135.06;;;18.66;100.00
47530;BME280;33272;51.922;7.730;2023-07-28T04:01:18;147131.22;;;18.65;100.00
47530;BME280;33272;51.922;7.730;2023-07-28T04:03:47;147122.28;;;18.61;100.00
47530;BME280;33272;51.922;7.730;2023-07-28T04:06:14;147135.06;;;18.66;100.00
47530;BME280;33272;51.922;7.730;2023-07-28T04:08:42;147133.75;;;18.66;100.00
47530;BME280;33272;51.922;7.730;2023-07-28T04:11:09;147127.41;;;18.63;100.00
47530;BME280;33272;51.922;7.730;2023-07-28T04:13:36;147126.09;;;18.63;100.00
47530;BME280;33272;51.922;7.730;2023-07-28T04:16:03;147128.69;;;18.64;100.00
47530;BME280;33272;51.922;7.730;2023-07-28T04:18:31;147137.59;;;18.67;100.00
47530;BME280;33272;51.922;7.730;2023-07-28T04:20:59;147114.63;;;18.58;100.00
47530;BME280;33272;51.922;7.730;2023-07-28T04:23:26;147126.09;;;18.63;100.00
47530;BME280;33272;51.922;7.730;2023-07-28T04:25:53;147121.03;;;18.61;100.00
47530;BME280;33272;51.922;7.730;2023-07-28T04:28:20;147150.38;;;18.72;100.00
47530;BME280;33272;51.922;7.730;2023-07-28T04:30:50;147147.78;;;18.71;100.00
47530;BME280;33272;51.922;7.730;2023-07-28T04:33:17;147132.47;;;18.65;100.00
47530;BME280;33272;51.922;7.730;2023-07-28T04:35:45;147163.16;;;18.78;100.00
47530;BME280;33272;51.922;7.730;2023-07-28T04:38:12;147168.28;;;18.80;100.00
47530;BME280;33272;51.922;7.730;2023-07-28T04:40:39;147158.03;;;18.75;100.00
47530;BME280;33272;51.922;7.730;2023-07-28T04:43:06;147169.53;;;18.80;100.00
47530;BME280;33272;51.922;7.730;2023-07-28T04:45:33;147163.16;;;18.78;100.00
47530;BME280;33272;51.922;7.730;2023-07-28T04:48:00;147155.50;;;18.74;100.00
47530;BME280;33272;51.922;7.730;2023-07-28T04:50:27;147155.50;;;18.74;100.00
47530;BME280;33272;51.922;7.730;2023-07-28T04:52:56;147154.22;;;18.74;100.00
47530;BME280;33272;51.922;7.730;2023-07-28T04:55:23;147167.00;;;18.79;100.00
47530;BME280;33272;51.922;7.730;2023-07-28T04:57:50;147167.00;;;18.79;100.00
47530;BME280;33272;51.922;7.730;2023-07-28T05:00:17;147189.94;;;18.88;100.00
47530;BME280;33272;51.922;7.730;2023-07-28T05:02:44;147192.50;;;18.89;100.00
47530;BME280;33272;51.922;7.730;2023-07-28T05:05:11;147170.81;;;18.81;100.00
47530;BME280;33272;51.922;7.730;2023-07-28T05:07:38;147188.66;;;18.88;100.00
47530;BME280;33272;51.922;7.730;2023-07-28T05:10:07;147184.84;;;18.86;100.00
47530;BME280;33272;51.922;7.730;2023-07-28T05:12:34;147193.78;;;18.90;100.00
47530;BME280;33272;51.922;7.730;2023-07-28T05:15:01;147174.66;;;18.82;100.00
47530;BME280;33272;51.922;7.730;2023-07-28T05:17:28;147164.41;;;18.78;100.00
47530;BME280;33272;51.922;7.730;2023-07-28T05:19:55;147159.34;;;18.76;100.00
47530;BME280;33272;51.922;7.730;2023-07-28T05:22:22;147184.84;;;18.86;100.00
47530;BME280;33272;51.922;7.730;2023-07-28T05:24:49;147189.94;;;18.88;100.00
47530;BME280;33272;51.922;7.730;2023-07-28T05:27:17;147183.59;;;18.86;100.00
47530;BME280;33272;51.922;7.730;2023-07-28T05:29:44;147188.66;;;18.88;100.00
47530;BME280;33272;51.922;7.730;2023-07-28T05:32:11;147181.00;;;18.85;100.00
47530;BME280;33272;51.922;7.730;2023-07-28T05:34:41;147200.16;;;18.92;100.00
47530;BME280;33272;51.922;7.730;2023-07-28T05:37:08;147203.97;;;18.94;100.00
47530;BME280;33272;51.922;7.730;2023-07-28T05:39:35;147198.91;;;18.92;100.00
47530;BME280;33272;51.922;7.730;2023-07-28T05:42:02;147191.25;;;18.89;100.00
47530;BME280;33272;51.922;7.730;2023-07-28T05:44:31;147225.69;;;19.03;100.00
47530;BME280;33272;51.922;7.730;2023-07-28T05:46:58;147247.38;;;19.11;100.00
47530;BME280;33272;51.922;7.730;2023-07-28T05:49:25;147251.19;;;19.13;100.00
47530;BME280;33272;51.922;7.730;2023-07-28T05:51:52;147257.56;;;19.15;100.00
47530;BME280;33272;51.922;7.730;2023-07-28T05:54:19;147283.09;;;19.26;100.00
47530;BME280;33272;51.922;7.730;2023-07-28T05:56:45;147293.34;;;19.30;100.00
47530;BME280;33272;51.922;7.730;2023-07-28T05:59:12;147298.41;;;19.32;100.00
47530;BME280;33272;51.922;7.730;2023-07-28T06:01:41;147308.66;;;19.36;100.00
47530;BME280;33272;51.922;7.730;2023-07-28T06:04:08;147317.56;;;19.39;100.00
47530;BME280;33272;51.922;7.730;2023-07-28T06:06:35;147323.97;;;19.42;100.00
47530;BME280;33272;51.922;7.730;2023-07-28T06:09:02;147325.22;;;19.42;100.00
47530;BME280;33272;51.922;7.730;2023-07-28T06:11:29;147323.97;;;19.42;100.00
47530;BME280;33272;51.922;7.730;2023-07-28T06:13:56;147315.00;;;19.38;100.00
47530;BME280;33272;51.922;7.730;2023-07-28T06:16:23;147280.56;;;19.25;100.00
47530;BME280;33272;51.922;7.730;2023-07-28T06:18:52;147311.19;;;19.37;100.00
47530;BME280;33272;51.922;7.730;2023-07-28T06:21:19;147301.00;;;19.33;100.00
47530;BME280;33272;51.922;7.730;2023-07-28T06:23:46;147337.97;;;19.48;100.00
47530;BME280;33272;51.922;7.730;2023-07-28T06:26:13;147340.56;;;19.49;100.00
47530;BME280;33272;51.922;7.730;2023-07-28T06:28:40;147367.34;;;19.59;100.00
47530;BME280;33272;51.922;7.730;2023-07-28T06:31:07;147363.53;;;19.58;100.00
47530;BME280;33272;51.922;7.730;2023-07-28T06:33:34;147359.69;;;19.56;100.00
47530;BME280;33272;51.922;7.730;2023-07-28T06:36:04;147331.56;;;19.45;100.00
47530;BME280;33272;51.922;7.730;2023-07-28T06:38:31;147363.53;;;19.58;100.00
47530;BME280;33272;51.922;7.730;2023-07-28T06:40:58;147353.28;;;19.54;100.00
47530;BME280;33272;51.922;7.730;2023-07-28T06:43:25;147375.00;;;19.62;100.00
47530;BME280;33272;51.922;7.730;2023-07-28T06:45:53;147398.03;;;19.72;100.00
47530;BME280;33272;51.922;7.730;2023-07-28T06:48:20;147399.31;;;19.72;100.00
47530;BME280;33272;51.922;7.730;2023-07-28T06:50:47;147426.09;;;19.83;100.00
47530;BME280;33272;51.922;7.730;2023-07-28T06:53:16;147431.22;;;19.85;100.00
47530;BME280;33272;51.922;7.730;2023-07-28T06:55:43;147450.41;;;19.93;100.00
47530;BME280;33272;51.922;7.730;2023-07-28T06:58:10;147495.06;;;20.10;100.00
47530;BME280;33272;51.922;7.730;2023-07-28T07:00:37;147518.06;;;20.20;100.00
47530;BME280;33272;51.922;7.730;2023-07-28T07:03:04;147541.03;;;20.29;100.00
47530;BME280;33272;51.922;7.730;2023-07-28T07:05:31;147556.38;;;20.35;100.00
47530;BME280;33272;51.922;7.730;2023-07-28T07:07:58;147587.03;;;20.47;100.00
47530;BME280;33272;51.922;7.730;2023-07-28T07:10:28;147636.88;;;20.67;100.00
47530;BME280;33272;51.922;7.730;2023-07-28T07:12:56;147643.28;;;20.70;100.00
47530;BME280;33272;51.922;7.730;2023-07-28T07:15:23;147709.72;;;20.96;100.00
47530;BME280;33272;51.922;7.730;2023-07-28T07:17:50;147764.66;;;21.18;100.00
47530;BME280;33272;51.922;7.730;2023-07-28T07:20:17;147797.94;;;21.32;100.00
47530;BME280;33272;51.922;7.730;2023-07-28T07:22:45;147847.81;;;21.51;100.00
47530;BME280;33272;51.922;7.730;2023-07-28T07:25:13;147806.91;;;21.35;100.00
47530;BME280;33272;51.922;7.730;2023-07-28T07:27:41;147845.28;;;21.50;100.00
47530;BME280;33272;51.922;7.730;2023-07-28T07:30:09;147868.28;;;21.60;100.00
47530;BME280;33272;51.922;7.730;2023-07-28T07:32:36;147883.63;;;21.66;100.00
47530;BME280;33272;51.922;7.730;2023-07-28T07:35:04;147878.50;;;21.64;100.00
47530;BME280;33272;51.922;7.730;2023-07-28T07:37:31;147854.22;;;21.54;100.00
47530;BME280;33272;51.922;7.730;2023-07-28T07:39:58;147810.72;;;21.37;100.00
47530;BME280;33272;51.922;7.730;2023-07-28T07:42:25;147818.41;;;21.40;100.00
47530;BME280;33272;51.922;7.730;2023-07-28T07:44:54;147842.69;;;21.49;100.00
47530;BME280;33272;51.922;7.730;2023-07-28T07:47:21;147842.69;;;21.49;100.00
47530;BME280;33272;51.922;7.730;2023-07-28T07:49:48;147840.16;;;21.48;100.00
47530;BME280;33272;51.922;7.730;2023-07-28T07:52:15;147805.59;;;21.35;100.00
47530;BME280;33272;51.922;7.730;2023-07-28T07:54:41;147774.91;;;21.22;100.00
47530;BME280;33272;51.922;7.730;2023-07-28T07:57:08;147767.25;;;21.19;100.00
47530;BME280;33272;51.922;7.730;2023-07-28T07:59:35;147713.56;;;20.98;100.00
47530;BME280;33272;51.922;7.730;2023-07-28T08:02:05;147734.03;;;21.06;100.00
47530;BME280;33272;51.922;7.730;2023-07-28T08:04:32;147730.16;;;21.04;100.00
47530;BME280;33272;51.922;7.730;2023-07-28T08:06:59;147765.97;;;21.19;100.00
47530;BME280;33272;51.922;7.730;2023-07-28T08:09:26;147789.00;;;21.28;100.00
47530;BME280;33272;51.922;7.730;2023-07-28T08:11:54;147810.72;;;21.37;100.00
47530;BME280;33272;51.922;7.730;2023-07-28T08:14:21;147806.91;;;21.35;100.00
47530;BME280;33272;51.922;7.730;2023-07-28T08:16:48;147755.72;;;21.15;100.00
47530;BME280;33272;51.922;7.730;2023-07-28T08:19:16;147760.84;;;21.17;100.00
47530;BME280;33272;51.922;7.730;2023-07-28T08:21:43;147695.69;;;20.91;100.00
47530;BME280;33272;51.922;7.730;2023-07-28T08:24:10;147698.22;;;20.92;100.00
47530;BME280;33272;51.922;7.730;2023-07-28T08:26:38;147709.72;;;20.96;100.00
47530;BME280;33272;51.922;7.730;2023-07-28T08:29:05;147735.31;;;21.06;100.00
47530;BME280;33272;51.922;7.730;2023-07-28T08:31:32;147728.91;;;21.04;100.00
47530;BME280;33272;51.922;7.730;2023-07-28T08:33:59;147737.84;;;21.08;100.00
47530;BME280;33272;51.922;7.730;2023-07-28T08:36:27;147753.19;;;21.14;100.00
47530;BME280;33272;51.922;7.730;2023-07-28T08:38:54;147762.13;;;21.17;100.00
47530;BME280;33272;51.922;7.730;2023-07-28T08:41:21;147777.47;;;21.23;100.00
47530;BME280;33272;51.922;7.730;2023-07-28T08:43:48;147783.84;;;21.26;100.00
47530;BME280;33272;51.922;7.730;2023-07-28T08:46:16;147799.19;;;21.32;100.00
47530;BME280;33272;51.922;7.730;2023-07-28T08:48:43;147812.00;;;21.37;100.00
47530;BME280;33272;51.922;7.730;2023-07-28T08:51:12;147785.13;;;21.26;100.00
47530;BME280;33272;51.922;7.730;2023-07-28T08:53:40;147783.84;;;21.26;100.00
47530;BME280;33272;51.922;7.730;2023-07-28T08:56:08;147753.19;;;21.14;100.00
47530;BME280;33272;51.922;7.730;2023-07-28T08:58:35;147731.44;;;21.05;100.00
47530;BME280;33272;51.922;7.730;2023-07-28T09:01:02;147735.31;;;21.06;100.00
47530;BME280;33272;51.922;7.730;2023-07-28T09:03:30;147785.13;;;21.26;100.00
47530;BME280;33272;51.922;7.730;2023-07-28T09:06:00;147832.47;;;21.45;100.00
47530;BME280;33272;51.922;7.730;2023-07-28T09:08:28;147829.94;;;21.44;100.00
47530;BME280;33272;51.922;7.730;2023-07-28T09:11:02;147861.88;;;21.57;100.00
47530;BME280;33272;51.922;7.730;2023-07-28T09:13:36;147856.75;;;21.55;100.00
47530;BME280;33272;51.922;7.730;2023-07-28T09:16:04;147913.00;;;21.78;100.00
47530;BME280;33272;51.922;7.730;2023-07-28T09:18:31;147975.66;;;22.03;100.00
47530;BME280;33272;51.922;7.730;2023-07-28T09:20:58;147999.97;;;22.12;100.00
47530;BME280;33272;51.922;7.730;2023-07-28T09:23:29;148010.28;;;22.16;100.00
47530;BME280;33272;51.922;7.730;2023-07-28T09:26:00;147980.78;;;22.05;100.00
47530;BME280;33272;51.922;7.730;2023-07-28T09:28:37;147947.56;;;21.91;100.00
47530;BME280;33272;51.922;7.730;2023-07-28T09:31:05;147946.25;;;21.91;100.00
47530;BME280;33272;51.922;7.730;2023-07-28T09:33:35;147877.22;;;21.63;100.00
47530;BME280;33272;51.922;7.730;2023-07-28T09:36:10;147859.28;;;21.56;100.00
47530;BME280;33272;51.922;7.730;2023-07-28T09:38:39;147840.16;;;21.48;100.00
47530;BME280;33272;51.922;7.730;2023-07-28T09:41:09;147882.31;;;21.65;100.00
47530;BME280;33272;51.922;7.730;2023-07-28T09:43:37;147939.88;;;21.88;100.00
47530;BME280;33272;51.922;7.730;2023-07-28T09:46:07;147991.00;;;22.09;100.00
47530;BME280;33272;51.922;7.730;2023-07-28T09:48:36;147946.25;;;21.91;100.00
47530;BME280;33272;51.922;7.730;2023-07-28T09:51:08;147992.28;;;22.09;100.00
47530;BME280;33272;51.922;7.730;2023-07-28T09:53:44;148003.81;;;22.14;100.00
47530;BME280;33272;51.922;7.730;2023-07-28T09:56:15;148029.44;;;22.24;100.00
47530;BME280;33272;51.922;7.730;2023-07-28T09:58:50;147973.13;;;22.02;100.00
47530;BME280;33272;51.922;7.730;2023-07-28T10:01:19;148057.59;;;22.35;100.00
47530;BME280;33272;51.922;7.730;2023-07-28T10:03:47;148099.78;;;22.52;100.00
47530;BME280;33272;51.922;7.730;2023-07-28T10:06:15;148121.56;;;22.61;100.00
47530;BME280;33272;51.922;7.730;2023-07-28T10:08:43;148071.63;;;22.41;100.00
47530;BME280;33272;51.922;7.730;2023-07-28T10:11:14;148124.09;;;22.62;100.00
47530;BME280;33272;51.922;7.730;2023-07-28T10:13:43;148144.59;;;22.70;100.00
47530;BME280;33272;51.922;7.730;2023-07-28T10:16:12;148138.19;;;22.67;100.00
47530;BME280;33272;51.922;7.730;2023-07-28T10:18:40;148093.38;;;22.50;100.00
47530;BME280;33272;51.922;7.730;2023-07-28T10:21:10;148138.19;;;22.67;100.00
47530;BME280;33272;51.922;7.730;2023-07-28T10:23:41;148150.94;;;22.73;100.00
47530;BME280;33272;51.922;7.730;2023-07-28T10:26:10;148159.94;;;22.76;100.00
47530;BME280;33272;51.922;7.730;2023-07-28T10:28:39;148247.00;;;23.11;100.00
47530;BME280;33272;51.922;7.730;2023-07-28T10:31:10;148303.31;;;23.33;100.00
47530;BME280;33272;51.922;7.730;2023-07-28T10:33:38;148343.00;;;23.49;100.00
47530;BME280;33272;51.922;7.730;2023-07-28T10:36:14;148401.94;;;23.73;100.00
47530;BME280;33272;51.922;7.730;2023-07-28T10:38:42;148422.44;;;23.81;100.00
47530;BME280;33272;51.922;7.730;2023-07-28T10:41:13;148449.31;;;23.92;100.00
47530;BME280;33272;51.922;7.730;2023-07-28T10:43:43;148459.53;;;23.96;100.00
47530;BME280;33272;51.922;7.730;2023-07-28T10:46:13;148474.91;;;24.02;100.00
47530;BME280;33272;51.922;7.730;2023-07-28T10:48:46;148536.38;;;24.26;100.00
47530;BME280;33272;51.922;7.730;2023-07-28T10:51:21;148578.75;;;24.43;100.00
47530;BME280;33272;51.922;7.730;2023-07-28T10:53:50;148554.31;;;24.34;100.00
47530;BME280;33272;51.922;7.730;2023-07-28T10:56:17;148536.38;;;24.26;100.00
47530;BME280;33272;51.922;7.730;2023-07-28T10:58:46;148554.31;;;24.34;100.00
47530;BME280;33272;51.922;7.730;2023-07-28T11:01:15;148532.56;;;24.25;100.00
47530;BME280;33272;51.922;7.730;2023-07-28T11:03:42;148545.34;;;24.30;100.00
47530;BME280;33272;51.922;7.730;2023-07-28T11:06:09;148533.84;;;24.25;100.00
47530;BME280;33272;51.922;7.730;2023-07-28T11:08:36;148576.16;;;24.42;100.00
47530;BME280;33272;51.922;7.730;2023-07-28T11:11:05;148526.16;;;24.22;100.00
47530;BME280;33272;51.922;7.730;2023-07-28T11:13:32;148590.25;;;24.48;100.00
47530;BME280;33272;51.922;7.730;2023-07-28T11:16:00;148645.34;;;24.70;100.00
47530;BME280;33272;51.922;7.730;2023-07-28T11:18:28;148726.06;;;25.02;100.00
47530;BME280;33272;51.922;7.730;2023-07-28T11:20:55;148783.75;;;25.25;100.00
47530;BME280;33272;51.922;7.730;2023-07-28T11:23:22;148836.34;;;25.46;100.00
47530;BME280;33272;51.922;7.730;2023-07-28T11:25:49;148909.41;;;25.75;100.00
47530;BME280;33272;51.922;7.730;2023-07-28T11:28:16;148885.03;;;25.65;100.00
47530;BME280;33272;51.922;7.730;2023-07-28T11:30:46;148955.63;;;25.94;100.00
47530;BME280;33272;51.922;7.730;2023-07-28T11:33:15;148968.47;;;25.99;100.00
47530;BME280;33272;51.922;7.730;2023-07-28T11:35:44;148990.28;;;26.07;100.00
47530;BME280;33272;51.922;7.730;2023-07-28T11:38:13;148976.16;;;26.02;100.00
47530;BME280;33272;51.922;7.730;2023-07-28T11:40:41;148915.81;;;25.78;100.00
47530;BME280;33272;51.922;7.730;2023-07-28T11:43:09;148940.22;;;25.87;100.00
47530;BME280;33272;51.922;7.730;2023-07-28T11:45:36;148927.44;;;25.82;100.00
47530;BME280;33272;51.922;7.730;2023-07-28T11:48:05;148944.09;;;25.89;100.00
47530;BME280;33272;51.922;7.730;2023-07-28T11:50:39;148926.13;;;25.82;100.00
47530;BME280;33272;51.922;7.730;2023-07-28T11:53:06;148909.41;;;25.75;100.00
47530;BME280;33272;51.922;7.730;2023-07-28T11:55:36;148930.00;;;25.83;100.00
47530;BME280;33272;51.922;7.730;2023-07-28T11:58:04;148912.00;;;25.76;100.00
47530;BME280;33272;51.922;7.730;2023-07-28T12:00:33;148892.75;;;25.69;100.00
47530;BME280;33272;51.922;7.730;2023-07-28T12:03:06;148826.09;;;25.42;100.00
47530;BME280;33272;51.922;7.730;2023-07-28T12:05:37;148782.50;;;25.25;100.00
47530;BME280;33272;51.922;7.730;2023-07-28T12:08:04;148797.88;;;25.31;100.00
47530;BME280;33272;51.922;7.730;2023-07-28T12:10:33;148762.00;;;25.16;100.00
47530;BME280;33272;51.922;7.730;2023-07-28T12:13:04;148717.09;;;24.98;100.00
47530;BME280;33272;51.922;7.730;2023-07-28T12:15:33;148676.09;;;24.82;100.00
47530;BME280;33272;51.922;7.730;2023-07-28T12:18:07;148696.56;;;24.90;100.00
47530;BME280;33272;51.922;7.730;2023-07-28T12:20:37;148735.03;;;25.06;100.00
47530;BME280;33272;51.922;7.730;2023-07-28T12:23:05;148713.28;;;24.97;100.00
47530;BME280;33272;51.922;7.730;2023-07-28T12:25:33;148708.13;;;24.95;100.00
47530;BME280;33272;51.922;7.730;2023-07-28T12:28:00;148670.94;;;24.80;100.00
47530;BME280;33272;51.922;7.730;2023-07-28T12:30:27;148640.19;;;24.68;100.00
47530;BME280;33272;51.922;7.730;2023-07-28T12:32:54;148622.28;;;24.61;100.00
47530;BME280;33272;51.922;7.730;2023-07-28T12:35:22;148618.44;;;24.59;100.00
47530;BME280;33272;51.922;7.730;2023-07-28T12:37:51;148618.44;;;24.59;100.00
47530;BME280;33272;51.922;7.730;2023-07-28T12:40:19;148640.19;;;24.68;100.00
47530;BME280;33272;51.922;7.730;2023-07-28T12:42:46;148676.09;;;24.82;100.00
47530;BME280;33272;51.922;7.730;2023-07-28T12:45:14;148708.13;;;24.95;100.00